Time;durP1;ratioP1;P1;durP2;ratioP2;P2;SDS_P1;SDS_P2;PMS_P1;PMS_P2;Temp;Humidity;BMP_temperature;BMP_pressure;BME280_temperature;BME280_humidity;BME280_pressure;Samples;Min_cycle;Max_cycle;Signal;HPM_P1;HPM_P2
2023/04/24 00:00:06;;;;;;;;;;;15.20;89.60;;;;;;6127714;23;19909;-96
2023/04/24 00:02:32;;;;;;;;;;;15.20;89.60;;;;;;6128348;23;19936;-96
2023/04/24 00:05:02;;;;;;;;;;;15.20;89.70;;;;;;6127523;23;19940;-96
2023/04/24 00:07:28;;;;;;;;;;;15.20;89.30;;;;;;6101641;23;19905;-96
2023/04/24 00:09:54;;;;;;;;;;;15.20;89.40;;;;;;6128336;23;19909;-96
2023/04/24 00:12:20;;;;;;;;;;;15.20;89.20;;;;;;6127668;23;19936;-96
2023/04/24 00:14:45;;;;;;;;;;;15.30;89.10;;;;;;6101574;23;19980;-96
2023/04/24 00:17:11;;;;;;;;;;;15.30;89.00;;;;;;6101462;23;19917;-96
2023/04/24 00:19:37;;;;;;;;;;;15.20;89.00;;;;;;6101509;23;19905;-96
2023/04/24 00:22:02;;;;;;;;;;;15.20;89.00;;;;;;6128192;23;19905;-96
2023/04/24 00:24:28;;;;;;;;;;;15.10;89.10;;;;;;6127586;23;19920;-96
2023/04/24 00:26:53;;;;;;;;;;;15.10;89.20;;;;;;6128176;23;20204;-96
2023/04/24 00:29:19;;;;;;;;;;;15.10;89.10;;;;;;6127716;23;19905;-96
2023/04/24 00:31:45;;;;;;;;;;;15.10;89.20;;;;;;6128078;23;19905;-96
2023/04/24 00:34:11;;;;;;;;;;;15.10;89.40;;;;;;6101271;23;19905;-96
2023/04/24 00:36:37;;;;;;;;;;;15.00;89.10;;;;;;6127701;23;19932;-96
2023/04/24 00:39:02;;;;;;;;;;;14.90;89.10;;;;;;6127287;23;20312;-96
2023/04/24 00:41:28;;;;;;;;;;;14.80;89.30;;;;;;6127242;23;19912;-96
2023/04/24 00:43:54;;;;;;;;;;;14.70;89.60;;;;;;6125748;23;20325;-96
2023/04/24 00:46:20;;;;;;;;;;;14.70;89.80;;;;;;6102404;23;19912;-96
2023/04/24 00:48:46;;;;;;;;;;;14.60;90.00;;;;;;6127593;23;20316;-95
2023/04/24 00:51:12;;;;;;;;;;;14.60;90.10;;;;;;6127532;23;19964;-96
2023/04/24 00:53:37;;;;;;;;;;;14.70;90.00;;;;;;6127598;23;19905;-96
2023/04/24 00:56:03;;;;;;;;;;;14.70;89.90;;;;;;6101181;23;19909;-95
2023/04/24 00:58:30;;;;;;;;;;;14.70;89.70;;;;;;6127547;23;19912;-95
2023/04/24 01:00:57;;;;;;;;;;;14.80;89.50;;;;;;6101238;23;19956;-96
2023/04/24 01:03:26;;;;;;;;;;;14.80;89.40;;;;;;6127533;23;19909;-96
2023/04/24 01:05:52;;;;;;;;;;;14.80;89.20;;;;;;6127127;23;19936;-96
2023/04/24 01:08:18;;;;;;;;;;;14.80;89.10;;;;;;6101188;23;19953;-96
2023/04/24 01:10:44;;;;;;;;;;;14.80;88.80;;;;;;6127311;23;19985;-96
2023/04/24 01:13:10;;;;;;;;;;;14.80;88.70;;;;;;6101139;23;19912;-96
2023/04/24 01:15:36;;;;;;;;;;;14.70;88.80;;;;;;6127605;23;19907;-96
2023/04/24 01:18:02;;;;;;;;;;;14.80;88.80;;;;;;6127069;23;19915;-96
2023/04/24 01:20:28;;;;;;;;;;;14.80;88.70;;;;;;6101108;23;19905;-96
2023/04/24 01:22:54;;;;;;;;;;;14.80;88.60;;;;;;6101133;23;20312;-96
2023/04/24 01:25:20;;;;;;;;;;;14.80;88.90;;;;;;6100945;23;19956;-96
2023/04/24 01:27:46;;;;;;;;;;;14.80;88.90;;;;;;6101054;23;19912;-96
2023/04/24 01:30:12;;;;;;;;;;;14.80;88.80;;;;;;6127349;23;19905;-96
2023/04/24 01:32:37;;;;;;;;;;;14.80;88.60;;;;;;6100984;23;19905;-96
2023/04/24 01:35:03;;;;;;;;;;;14.80;88.50;;;;;;6101572;23;19952;-96
2023/04/24 01:37:29;;;;;;;;;;;14.80;88.50;;;;;;6126771;23;20327;-96
2023/04/24 01:39:54;;;;;;;;;;;14.80;88.10;;;;;;6100922;23;19905;-96
2023/04/24 01:42:20;;;;;;;;;;;14.80;88.00;;;;;;6127679;23;19956;-95
2023/04/24 01:44:46;;;;;;;;;;;14.80;88.10;;;;;;6127582;23;20292;-96
2023/04/24 01:47:11;;;;;;;;;;;14.80;88.10;;;;;;6101081;23;19908;-95
2023/04/24 01:49:40;;;;;;;;;;;14.70;88.00;;;;;;6127257;23;19904;-96
2023/04/24 01:52:06;;;;;;;;;;;14.80;88.00;;;;;;6125342;23;19919;-96
2023/04/24 01:54:31;;;;;;;;;;;14.70;87.90;;;;;;6101021;23;19932;-96
2023/04/24 01:56:57;;;;;;;;;;;14.80;87.70;;;;;;6127508;23;19909;-96
2023/04/24 01:59:23;;;;;;;;;;;14.80;87.50;;;;;;6100935;23;19912;-96
2023/04/24 02:01:48;;;;;;;;;;;14.80;87.50;;;;;;6102071;23;19905;-95
2023/04/24 02:04:15;;;;;;;;;;;14.80;87.40;;;;;;6102860;23;19955;-96
2023/04/24 02:06:40;;;;;;;;;;;14.80;87.40;;;;;;6102827;23;19959;-96
2023/04/24 02:09:06;;;;;;;;;;;14.70;87.60;;;;;;6103795;23;19905;-96
2023/04/24 02:11:31;;;;;;;;;;;14.70;87.70;;;;;;6128639;23;19916;-96
2023/04/24 02:13:57;;;;;;;;;;;14.70;87.60;;;;;;6129350;23;19905;-96
2023/04/24 02:16:23;;;;;;;;;;;14.80;87.60;;;;;;6102644;23;20439;-96
2023/04/24 02:18:48;;;;;;;;;;;14.80;87.50;;;;;;6102755;23;20279;-96
2023/04/24 02:21:14;;;;;;;;;;;14.80;87.40;;;;;;6128883;23;19983;-95
2023/04/24 02:23:40;;;;;;;;;;;14.80;87.30;;;;;;6128570;23;19980;-96
2023/04/24 02:26:05;;;;;;;;;;;14.70;87.40;;;;;;6128393;23;19921;-96
2023/04/24 02:28:31;;;;;;;;;;;14.70;87.60;;;;;;6103249;23;19904;-96
2023/04/24 02:30:56;;;;;;;;;;;14.80;87.50;;;;;;6128456;23;19928;-96
2023/04/24 02:33:22;;;;;;;;;;;14.80;87.10;;;;;;6128488;23;19915;-95
2023/04/24 02:35:47;;;;;;;;;;;14.80;86.80;;;;;;6129052;23;19930;-96
2023/04/24 02:38:13;;;;;;;;;;;14.90;86.40;;;;;;6128787;23;19912;-96
2023/04/24 02:40:39;;;;;;;;;;;14.90;86.30;;;;;;6102347;23;19959;-96
2023/04/24 02:43:04;;;;;;;;;;;14.90;86.00;;;;;;6102453;23;19955;-96
2023/04/24 02:45:30;;;;;;;;;;;14.90;85.90;;;;;;6129063;23;19912;-96
2023/04/24 02:47:55;;;;;;;;;;;14.90;86.10;;;;;;6102295;23;19905;-96
2023/04/24 02:50:21;;;;;;;;;;;14.90;86.10;;;;;;6129108;23;19912;-95
2023/04/24 02:52:46;;;;;;;;;;;14.90;86.10;;;;;;6102376;23;19932;-94
2023/04/24 02:55:12;;;;;;;;;;;14.90;85.90;;;;;;6102422;23;20323;-96
2023/04/24 02:57:38;;;;;;;;;;;14.80;85.80;;;;;;6128557;23;19909;-96
2023/04/24 03:00:06;;;;;;;;;;;14.80;85.40;;;;;;6102259;23;19955;-96
2023/04/24 03:02:32;;;;;;;;;;;14.80;84.70;;;;;;6128568;23;19909;-95
2023/04/24 03:04:58;;;;;;;;;;;14.80;84.50;;;;;;6128650;23;19905;-96
2023/04/24 03:07:23;;;;;;;;;;;14.80;84.20;;;;;;6102205;23;19947;-96
2023/04/24 03:09:49;;;;;;;;;;;14.80;84.10;;;;;;6102328;23;19905;-96
2023/04/24 03:12:17;;;;;;;;;;;14.80;83.80;;;;;;6101793;23;20335;-96
2023/04/24 03:14:43;;;;;;;;;;;14.80;83.50;;;;;;6101906;23;19984;-96
2023/04/24 03:17:08;;;;;;;;;;;14.90;83.90;;;;;;6102162;23;20386;-96
2023/04/24 03:19:34;;;;;;;;;;;14.80;83.70;;;;;;6128847;23;19913;-96
2023/04/24 03:22:01;;;;;;;;;;;14.80;83.30;;;;;;6102022;23;19936;-96
2023/04/24 03:24:28;;;;;;;;;;;14.90;83.00;;;;;;6102429;23;19913;-96
2023/04/24 03:26:53;;;;;;;;;;;14.90;82.50;;;;;;6127996;23;19905;-96
2023/04/24 03:29:19;;;;;;;;;;;14.90;82.40;;;;;;6102001;23;19905;-96
2023/04/24 03:31:45;;;;;;;;;;;14.90;82.40;;;;;;6102086;23;19919;-96
2023/04/24 03:34:10;;;;;;;;;;;14.90;82.50;;;;;;6101856;23;19905;-96
2023/04/24 03:36:36;;;;;;;;;;;14.90;82.30;;;;;;6126332;23;19909;-95
2023/04/24 03:39:01;;;;;;;;;;;14.90;82.30;;;;;;6102117;23;19909;-96
2023/04/24 03:41:27;;;;;;;;;;;15.00;82.20;;;;;;6127764;23;20247;-96
2023/04/24 03:43:52;;;;;;;;;;;14.90;82.10;;;;;;6128161;23;19911;-96
2023/04/24 03:46:18;;;;;;;;;;;15.00;81.80;;;;;;6102192;23;19912;-96
2023/04/24 03:48:44;;;;;;;;;;;14.90;82.20;;;;;;6128146;23;19912;-95
2023/04/24 03:51:09;;;;;;;;;;;14.90;82.70;;;;;;6101727;23;19916;-96
2023/04/24 03:53:35;;;;;;;;;;;14.90;83.50;;;;;;6128322;23;19939;-96
2023/04/24 03:56:00;;;;;;;;;;;14.90;84.00;;;;;;6101909;23;20382;-96
2023/04/24 03:58:26;;;;;;;;;;;14.90;85.20;;;;;;6101884;23;19956;-96
2023/04/24 04:00:52;;;;;;;;;;;14.80;85.50;;;;;;6101862;23;20250;-96
2023/04/24 04:03:17;;;;;;;;;;;14.80;85.40;;;;;;6101755;23;19955;-96
2023/04/24 04:05:43;;;;;;;;;;;14.80;85.50;;;;;;6101984;23;20242;-96
2023/04/24 04:08:08;;;;;;;;;;;14.80;85.60;;;;;;6101855;23;19908;-96
2023/04/24 04:10:34;;;;;;;;;;;14.70;85.60;;;;;;6128090;23;20235;-96
2023/04/24 04:12:59;;;;;;;;;;;14.70;85.90;;;;;;6128089;23;19909;-96
2023/04/24 04:15:25;;;;;;;;;;;14.60;87.00;;;;;;6101917;23;19932;-96
2023/04/24 04:17:51;;;;;;;;;;;14.50;87.30;;;;;;6127935;23;20371;-96
2023/04/24 04:20:16;;;;;;;;;;;14.60;87.00;;;;;;6101459;23;19905;-96
2023/04/24 04:22:42;;;;;;;;;;;14.40;87.10;;;;;;6101446;23;19984;-96
2023/04/24 04:25:08;;;;;;;;;;;14.30;87.10;;;;;;6140876;23;19991;-96
2023/04/24 04:27:34;;;;;;;;;;;14.30;87.80;;;;;;6157416;23;19918;-96
2023/04/24 04:30:04;;;;;;;;;;;14.20;88.70;;;;;;6131024;23;19904;-96
2023/04/24 04:32:32;;;;;;;;;;;14.10;88.50;;;;;;6129410;23;19905;-96
2023/04/24 04:35:02;;;;;;;;;;;14.10;88.60;;;;;;6131763;23;19905;-96
2023/04/24 04:37:31;;;;;;;;;;;14.10;89.00;;;;;;6128301;23;19944;-96
2023/04/24 04:39:57;;;;;;;;;;;14.00;89.40;;;;;;6126732;23;19913;-96
2023/04/24 04:42:24;;;;;;;;;;;14.00;90.10;;;;;;6126380;23;19988;-96
2023/04/24 04:44:50;;;;;;;;;;;13.90;90.50;;;;;;6128211;23;19911;-96
2023/04/24 04:47:17;;;;;;;;;;;13.80;91.00;;;;;;6130092;23;19976;-96
2023/04/24 04:49:43;;;;;;;;;;;13.80;91.60;;;;;;6131648;23;19909;-96
2023/04/24 04:52:08;;;;;;;;;;;13.80;92.00;;;;;;6133609;23;19905;-96
2023/04/24 04:54:34;;;;;;;;;;;13.80;91.90;;;;;;6136105;23;20297;-96
2023/04/24 04:57:00;;;;;;;;;;;13.80;92.10;;;;;;6137582;23;19909;-96
2023/04/24 04:59:26;;;;;;;;;;;13.80;91.80;;;;;;6138854;23;19904;-96
2023/04/24 05:01:52;;;;;;;;;;;13.80;91.40;;;;;;6138469;23;19928;-96
2023/04/24 05:04:18;;;;;;;;;;;13.80;91.20;;;;;;6139307;23;19929;-96
2023/04/24 05:06:44;;;;;;;;;;;13.80;90.90;;;;;;6135549;23;19905;-96
2023/04/24 05:09:09;;;;;;;;;;;13.70;91.10;;;;;;6133457;23;20231;-96
2023/04/24 05:11:35;;;;;;;;;;;13.70;91.30;;;;;;6135502;23;19905;-96
2023/04/24 05:14:01;;;;;;;;;;;13.70;91.40;;;;;;6137219;23;19942;-96
2023/04/24 05:16:27;;;;;;;;;;;13.80;91.70;;;;;;6137635;23;19908;-96
2023/04/24 05:18:52;;;;;;;;;;;13.70;92.20;;;;;;6134810;23;19909;-96
2023/04/24 05:21:18;;;;;;;;;;;13.70;92.20;;;;;;6135158;23;20331;-96
2023/04/24 05:23:43;;;;;;;;;;;13.70;92.10;;;;;;6136922;23;19929;-96
2023/04/24 05:26:09;;;;;;;;;;;13.70;92.20;;;;;;6134713;23;19917;-96
2023/04/24 05:28:36;;;;;;;;;;;13.70;92.20;;;;;;6137768;23;19912;-96
2023/04/24 05:31:02;;;;;;;;;;;13.70;92.30;;;;;;6138742;23;19905;-96
2023/04/24 05:33:28;;;;;;;;;;;13.80;92.40;;;;;;6136799;23;19921;-96
2023/04/24 05:35:54;;;;;;;;;;;13.90;92.40;;;;;;6133782;23;19905;-96
2023/04/24 05:38:19;;;;;;;;;;;14.00;92.20;;;;;;6134986;23;19924;-96
2023/04/24 05:40:45;;;;;;;;;;;14.10;91.80;;;;;;6136290;23;19929;-96
2023/04/24 05:43:12;;;;;;;;;;;14.20;91.50;;;;;;6138143;23;20403;-96
2023/04/24 05:45:38;;;;;;;;;;;14.30;91.40;;;;;;6141026;23;19905;-96
2023/04/24 05:48:04;;;;;;;;;;;14.30;91.10;;;;;;6143060;23;19956;-96
2023/04/24 05:50:30;;;;;;;;;;;14.30;91.00;;;;;;6145785;23;19905;-96
2023/04/24 05:52:57;;;;;;;;;;;14.30;91.60;;;;;;6145206;23;19905;-96
2023/04/24 05:55:24;;;;;;;;;;;14.40;91.40;;;;;;6146668;23;20307;-96
2023/04/24 05:57:52;;;;;;;;;;;14.50;91.00;;;;;;6144881;23;19943;-96
2023/04/24 06:00:19;;;;;;;;;;;14.60;90.60;;;;;;6142377;23;19905;-96
2023/04/24 06:02:48;;;;;;;;;;;14.70;90.30;;;;;;6139623;23;20374;-96
2023/04/24 06:05:14;;;;;;;;;;;14.60;90.10;;;;;;6140071;23;19904;-96
2023/04/24 06:07:43;;;;;;;;;;;14.70;90.20;;;;;;6142597;23;19905;-96
2023/04/24 06:10:09;;;;;;;;;;;14.70;90.10;;;;;;6144768;23;19905;-96
2023/04/24 06:12:36;;;;;;;;;;;14.60;90.30;;;;;;6145222;23;19905;-96
2023/04/24 06:15:02;;;;;;;;;;;14.60;90.40;;;;;;6135415;23;19905;-96
2023/04/24 06:17:28;;;;;;;;;;;14.40;89.80;;;;;;6133475;23;19945;-96
2023/04/24 06:19:53;;;;;;;;;;;14.30;90.20;;;;;;6132614;23;19911;-95
2023/04/24 06:22:19;;;;;;;;;;;13.90;91.10;;;;;;6127035;23;19912;-96
2023/04/24 06:24:44;;;;;;;;;;;13.60;92.30;;;;;;6136782;23;19917;-96
2023/04/24 06:27:10;;;;;;;;;;;13.40;93.10;;;;;;6158255;23;19904;-95
2023/04/24 06:29:36;;;;;;;;;;;13.30;93.60;;;;;;6158119;23;19912;-95
2023/04/24 06:32:01;;;;;;;;;;;13.20;94.50;;;;;;6158283;23;19904;-96
2023/04/24 06:34:27;;;;;;;;;;;13.20;94.60;;;;;;6157912;23;19932;-96
2023/04/24 06:36:53;;;;;;;;;;;13.10;94.80;;;;;;6158226;23;19908;-96
2023/04/24 06:39:19;;;;;;;;;;;13.10;94.70;;;;;;6157859;23;19919;-96
2023/04/24 06:41:45;;;;;;;;;;;13.10;94.80;;;;;;6131706;23;19983;-96
2023/04/24 06:44:10;;;;;;;;;;;13.10;95.00;;;;;;6158210;23;19911;-96
2023/04/24 06:46:36;;;;;;;;;;;13.20;95.10;;;;;;6158107;23;19904;-96
2023/04/24 06:49:01;;;;;;;;;;;13.10;95.10;;;;;;6157987;23;19946;-95
2023/04/24 06:51:27;;;;;;;;;;;13.20;95.30;;;;;;6158145;23;19904;-95
2023/04/24 06:53:53;;;;;;;;;;;13.10;95.40;;;;;;6157758;23;19936;-96
2023/04/24 06:56:19;;;;;;;;;;;13.00;95.50;;;;;;6157712;23;19908;-96
2023/04/24 06:58:45;;;;;;;;;;;12.90;95.30;;;;;;6158011;23;19905;-95
2023/04/24 07:01:10;;;;;;;;;;;12.90;93.50;;;;;;6157882;23;19943;-96
2023/04/24 07:03:36;;;;;;;;;;;12.90;93.10;;;;;;6157757;23;19905;-94
2023/04/24 07:06:03;;;;;;;;;;;12.90;92.90;;;;;;6157882;23;19905;-94
2023/04/24 07:08:30;;;;;;;;;;;12.80;92.60;;;;;;6157967;23;19905;-96
2023/04/24 07:10:56;;;;;;;;;;;12.80;93.00;;;;;;6157601;23;19911;-94
2023/04/24 07:13:21;;;;;;;;;;;12.70;93.30;;;;;;6157986;23;19979;-95
2023/04/24 07:15:48;;;;;;;;;;;12.70;93.60;;;;;;6157875;23;19920;-95
2023/04/24 07:18:14;;;;;;;;;;;12.80;93.70;;;;;;6157611;23;19904;-95
2023/04/24 07:20:40;;;;;;;;;;;12.80;93.50;;;;;;6157888;23;20314;-95
2023/04/24 07:23:06;;;;;;;;;;;12.80;93.20;;;;;;6157555;23;19911;-95
2023/04/24 07:25:31;;;;;;;;;;;12.80;93.10;;;;;;6131295;23;19917;-95
2023/04/24 07:27:57;;;;;;;;;;;12.80;93.20;;;;;;6157843;23;19911;-96
2023/04/24 07:30:23;;;;;;;;;;;12.80;92.20;;;;;;6157479;23;19955;-95
2023/04/24 07:32:48;;;;;;;;;;;12.80;91.90;;;;;;6157513;23;19909;-95
2023/04/24 07:35:14;;;;;;;;;;;12.90;91.80;;;;;;6157735;23;19905;-95
2023/04/24 07:37:40;;;;;;;;;;;12.90;91.70;;;;;;6157322;23;19908;-96
2023/04/24 07:40:06;;;;;;;;;;;12.90;92.00;;;;;;6131030;23;20341;-96
2023/04/24 07:42:34;;;;;;;;;;;13.00;92.10;;;;;;6157301;23;20342;-95
2023/04/24 07:44:59;;;;;;;;;;;13.20;92.30;;;;;;6157988;23;19958;-95
2023/04/24 07:47:25;;;;;;;;;;;13.30;92.30;;;;;;6157644;23;19909;-95
2023/04/24 07:49:51;;;;;;;;;;;13.40;92.30;;;;;;6157984;23;19979;-96
2023/04/24 07:52:16;;;;;;;;;;;13.40;92.80;;;;;;6157181;23;19979;-96
2023/04/24 07:54:42;;;;;;;;;;;13.50;92.80;;;;;;6157294;23;19905;-96
2023/04/24 07:57:08;;;;;;;;;;;13.60;92.90;;;;;;6157161;23;19912;-96
2023/04/24 07:59:34;;;;;;;;;;;13.70;92.80;;;;;;6130759;23;19911;-96
2023/04/24 08:02:01;;;;;;;;;;;13.90;92.30;;;;;;6157527;23;19905;-95
2023/04/24 08:04:26;;;;;;;;;;;13.90;91.00;;;;;;6157044;23;19987;-95
2023/04/24 08:06:52;;;;;;;;;;;13.80;90.40;;;;;;6157203;23;19936;-95
2023/04/24 08:09:17;;;;;;;;;;;13.70;90.50;;;;;;6131256;23;19947;-95
2023/04/24 08:11:43;;;;;;;;;;;13.60;90.30;;;;;;6157713;23;19916;-95
2023/04/24 08:14:09;;;;;;;;;;;13.60;90.60;;;;;;6157361;23;19911;-96
2023/04/24 08:16:34;;;;;;;;;;;13.70;90.20;;;;;;6157560;23;19909;-96
2023/04/24 08:19:00;;;;;;;;;;;13.70;90.70;;;;;;6157343;23;19912;-96
2023/04/24 08:21:26;;;;;;;;;;;13.90;91.10;;;;;;6130738;23;19920;-95
2023/04/24 08:23:52;;;;;;;;;;;14.00;90.90;;;;;;6157245;23;19936;-96
2023/04/24 08:26:18;;;;;;;;;;;14.30;91.20;;;;;;6156719;23;19917;-95
2023/04/24 08:28:43;;;;;;;;;;;14.40;91.30;;;;;;6157539;23;19959;-95
2023/04/24 08:31:09;;;;;;;;;;;14.60;89.60;;;;;;6157198;23;19905;-96
2023/04/24 08:33:34;;;;;;;;;;;14.70;88.90;;;;;;6130552;23;19905;-96
2023/04/24 08:36:03;;;;;;;;;;;14.80;88.60;;;;;;6130553;23;19912;-95
2023/04/24 08:38:29;;;;;;;;;;;15.00;87.70;;;;;;6130661;23;19904;-96
2023/04/24 08:40:54;;;;;;;;;;;15.30;85.10;;;;;;6156697;23;19955;-95
2023/04/24 08:43:21;;;;;;;;;;;15.40;85.10;;;;;;6157124;23;19905;-96
2023/04/24 08:45:47;;;;;;;;;;;15.50;84.60;;;;;;6156691;23;19939;-96
2023/04/24 08:48:13;;;;;;;;;;;15.70;85.10;;;;;;6130605;23;19908;-95
2023/04/24 08:50:41;;;;;;;;;;;15.90;85.00;;;;;;6157098;23;19951;-96
2023/04/24 08:53:07;;;;;;;;;;;16.00;83.10;;;;;;6156985;23;19904;-96
2023/04/24 08:55:33;;;;;;;;;;;15.90;83.70;;;;;;6157384;23;19951;-96
2023/04/24 08:58:00;;;;;;;;;;;15.90;83.80;;;;;;6130398;23;20242;-96
2023/04/24 09:00:26;;;;;;;;;;;16.00;83.80;;;;;;6157426;23;19956;-96
2023/04/24 09:02:53;;;;;;;;;;;16.00;82.60;;;;;;6156666;23;19912;-96
2023/04/24 09:05:20;;;;;;;;;;;16.10;82.70;;;;;;6156958;23;19951;-95
2023/04/24 09:07:49;;;;;;;;;;;16.10;81.80;;;;;;6130400;23;19905;-96
2023/04/24 09:10:15;;;;;;;;;;;16.10;81.00;;;;;;6156899;23;19920;-96
2023/04/24 09:12:41;;;;;;;;;;;16.00;81.10;;;;;;6130369;23;19905;-96
2023/04/24 09:15:07;;;;;;;;;;;16.10;81.30;;;;;;6156846;23;19909;-96
2023/04/24 09:17:34;;;;;;;;;;;16.00;81.70;;;;;;6156506;23;20242;-95
2023/04/24 09:19:59;;;;;;;;;;;16.10;80.40;;;;;;6156866;23;19944;-95
2023/04/24 09:22:25;;;;;;;;;;;16.00;80.70;;;;;;6156533;23;19904;-96
2023/04/24 09:24:59;;;;;;;;;;;16.00;82.10;;;;;;6156668;23;20334;-96
2023/04/24 09:27:25;;;;;;;;;;;16.00;82.90;;;;;;6157000;23;19971;-96
2023/04/24 09:29:54;;;;;;;;;;;15.90;82.20;;;;;;6156809;23;20262;-96
2023/04/24 09:32:21;;;;;;;;;;;15.90;80.90;;;;;;6156905;23;19976;-96
2023/04/24 09:34:47;;;;;;;;;;;15.90;82.10;;;;;;6158105;23;19905;-96
2023/04/24 09:37:29;;;;;;;;;;;15.90;80.70;;;;;;6159405;23;19912;-96
2023/04/24 09:40:27;;;;;;;;;;;15.90;81.40;;;;;;6131743;23;19904;-96
2023/04/24 09:43:02;;;;;;;;;;;15.90;80.80;;;;;;6068121;23;19908;-96
2023/04/24 09:45:28;;;;;;;;;;;15.80;80.50;;;;;;6131485;23;19905;-96
2023/04/24 09:47:55;;;;;;;;;;;15.80;79.90;;;;;;6131344;23;19984;-96
2023/04/24 09:50:21;;;;;;;;;;;15.80;79.90;;;;;;6130475;23;19911;-96
2023/04/24 09:52:55;;;;;;;;;;;15.90;78.70;;;;;;6156931;23;19975;-96
2023/04/24 09:55:21;;;;;;;;;;;16.00;76.90;;;;;;6156501;23;19927;-96
2023/04/24 09:57:50;;;;;;;;;;;16.10;76.00;;;;;;6130216;23;20338;-95
2023/04/24 10:00:21;;;;;;;;;;;16.10;75.60;;;;;;6156711;23;19905;-96
2023/04/24 10:02:49;;;;;;;;;;;16.00;75.50;;;;;;6130268;23;19929;-96
2023/04/24 10:05:15;;;;;;;;;;;16.00;73.10;;;;;;6156741;23;19980;-96
2023/04/24 10:07:40;;;;;;;;;;;16.10;75.30;;;;;;6156654;23;19928;-96
2023/04/24 10:10:06;;;;;;;;;;;16.20;76.10;;;;;;6156514;23;20241;-96
2023/04/24 10:12:32;;;;;;;;;;;16.30;72.10;;;;;;6130600;23;20350;-96
2023/04/24 10:14:58;;;;;;;;;;;16.40;73.20;;;;;;6156458;23;19911;-96
2023/04/24 10:17:24;;;;;;;;;;;16.50;74.40;;;;;;6156711;23;19913;-96
2023/04/24 10:19:51;;;;;;;;;;;16.70;75.00;;;;;;6130087;23;19905;-96
2023/04/24 10:22:17;;;;;;;;;;;16.80;72.80;;;;;;6131571;23;19905;-96
2023/04/24 10:24:43;;;;;;;;;;;16.90;73.10;;;;;;6156442;23;19916;-95
2023/04/24 10:27:09;;;;;;;;;;;17.00;71.20;;;;;;6131957;23;19935;-96
2023/04/24 10:29:35;;;;;;;;;;;17.20;71.00;;;;;;6156833;23;19909;-96
2023/04/24 10:32:01;;;;;;;;;;;17.40;70.60;;;;;;6132732;23;19911;-96
2023/04/24 10:34:27;;;;;;;;;;;17.50;67.60;;;;;;6133235;23;19905;-96
2023/04/24 10:36:54;;;;;;;;;;;17.70;64.80;;;;;;6134824;23;19909;-96
2023/04/24 10:39:21;;;;;;;;;;;17.80;63.80;;;;;;6165385;23;19984;-96
2023/04/24 10:41:48;;;;;;;;;;;17.80;62.00;;;;;;6139926;23;19905;-96
2023/04/24 10:44:15;;;;;;;;;;;17.90;63.30;;;;;;6139033;23;19940;-96
2023/04/24 10:46:53;;;;;;;;;;;18.10;62.10;;;;;;6161671;23;19905;-96
2023/04/24 10:49:28;;;;;;;;;;;18.30;64.00;;;;;;6160954;23;19995;-96
2023/04/24 10:51:54;;;;;;;;;;;18.50;66.10;;;;;;6134177;23;19981;-96
2023/04/24 10:54:27;;;;;;;;;;;18.80;64.60;;;;;;6134387;23;19904;-96
2023/04/24 10:56:53;;;;;;;;;;;19.00;65.40;;;;;;6134058;23;19932;-96
2023/04/24 10:59:26;;;;;;;;;;;19.30;63.30;;;;;;6134156;23;19979;-96
2023/04/24 11:01:55;;;;;;;;;;;19.60;62.60;;;;;;6160383;23;19904;-96
2023/04/24 11:04:31;;;;;;;;;;;19.70;63.60;;;;;;6133368;23;19983;-96
2023/04/24 11:06:57;;;;;;;;;;;19.80;62.40;;;;;;6160260;23;19904;-96
2023/04/24 11:09:26;;;;;;;;;;;19.90;63.50;;;;;;6131799;23;19904;-96
2023/04/24 11:12:02;;;;;;;;;;;20.00;61.60;;;;;;6157985;23;19904;-96
2023/04/24 11:14:28;;;;;;;;;;;20.20;59.30;;;;;;6157686;23;19951;-96
2023/04/24 11:16:56;;;;;;;;;;;20.20;60.60;;;;;;6158010;23;20315;-96
2023/04/24 11:19:23;;;;;;;;;;;20.30;62.60;;;;;;6157792;23;19960;-96
2023/04/24 11:21:57;;;;;;;;;;;20.40;58.60;;;;;;6158123;23;19916;-96
2023/04/24 11:24:27;;;;;;;;;;;20.50;55.80;;;;;;6131430;23;19904;-96
2023/04/24 11:26:57;;;;;;;;;;;20.50;57.20;;;;;;6156073;23;19908;-96
2023/04/24 11:29:23;;;;;;;;;;;20.40;57.20;;;;;;6158200;23;19904;-96
2023/04/24 11:31:51;;;;;;;;;;;20.20;56.10;;;;;;6131399;23;20220;-96
2023/04/24 11:34:17;;;;;;;;;;;20.10;57.50;;;;;;6157339;23;19904;-96
2023/04/24 11:36:47;;;;;;;;;;;20.00;57.40;;;;;;6157753;23;19991;-96
2023/04/24 11:39:12;;;;;;;;;;;20.00;59.40;;;;;;6131669;23;20039;-95
2023/04/24 11:41:38;;;;;;;;;;;20.00;56.70;;;;;;6157389;23;20319;-96
2023/04/24 11:44:09;;;;;;;;;;;20.00;59.30;;;;;;6131171;23;19928;-96
2023/04/24 11:46:37;;;;;;;;;;;20.00;58.00;;;;;;6131123;23;19904;-96
2023/04/24 11:49:03;;;;;;;;;;;20.00;60.80;;;;;;6157932;23;19936;-96
2023/04/24 11:51:28;;;;;;;;;;;19.90;59.70;;;;;;6158298;23;19912;-96
2023/04/24 11:53:55;;;;;;;;;;;20.20;58.30;;;;;;6158476;23;19927;-96
2023/04/24 11:56:24;;;;;;;;;;;20.10;59.80;;;;;;6156163;23;19931;-96
2023/04/24 11:58:52;;;;;;;;;;;20.30;58.60;;;;;;6131715;23;19905;-96
2023/04/24 12:01:18;;;;;;;;;;;20.50;57.90;;;;;;6132272;23;19940;-96
2023/04/24 12:03:47;;;;;;;;;;;20.70;60.50;;;;;;6159006;23;19909;-96
2023/04/24 12:06:13;;;;;;;;;;;20.80;60.90;;;;;;6157946;23;19905;-96
2023/04/24 12:08:39;;;;;;;;;;;21.00;57.40;;;;;;6131770;23;19911;-96
2023/04/24 12:11:07;;;;;;;;;;;21.00;59.70;;;;;;6132966;23;19904;-96
2023/04/24 12:13:33;;;;;;;;;;;21.00;59.70;;;;;;6134672;23;19905;-96
2023/04/24 12:15:59;;;;;;;;;;;21.10;58.70;;;;;;6134855;23;19912;-96
2023/04/24 12:18:25;;;;;;;;;;;21.10;55.70;;;;;;6135447;23;19905;-96
2023/04/24 12:20:51;;;;;;;;;;;21.30;55.80;;;;;;6160630;23;19979;-96
2023/04/24 12:23:17;;;;;;;;;;;21.70;54.50;;;;;;6162297;23;19904;-96
2023/04/24 12:25:43;;;;;;;;;;;21.70;52.40;;;;;;6148945;23;19921;-96
2023/04/24 12:28:12;;;;;;;;;;;21.70;54.50;;;;;;6160224;23;19940;-96
2023/04/24 12:30:44;;;;;;;;;;;21.80;52.50;;;;;;6160000;23;19904;-96
2023/04/24 12:33:09;;;;;;;;;;;21.90;54.10;;;;;;6147795;23;19960;-96
2023/04/24 12:35:35;;;;;;;;;;;22.00;52.80;;;;;;6133774;23;19928;-96
2023/04/24 12:38:08;;;;;;;;;;;22.20;52.90;;;;;;6132771;23;19909;-96
2023/04/24 12:40:34;;;;;;;;;;;22.40;52.10;;;;;;6132104;23;19909;-96
2023/04/24 12:43:00;;;;;;;;;;;22.70;53.80;;;;;;6132220;23;19948;-96
2023/04/24 12:45:27;;;;;;;;;;;23.10;55.60;;;;;;6133193;23;19912;-96
2023/04/24 12:47:53;;;;;;;;;;;23.60;53.20;;;;;;6134874;23;19905;-96
2023/04/24 12:50:19;;;;;;;;;;;24.10;52.10;;;;;;6136158;23;20293;-96
2023/04/24 12:52:45;;;;;;;;;;;24.50;52.50;;;;;;6135551;23;19925;-96
2023/04/24 12:55:11;;;;;;;;;;;24.90;46.60;;;;;;6135008;23;19912;-96
2023/04/24 12:57:38;;;;;;;;;;;25.40;46.00;;;;;;6134797;23;19909;-96
2023/04/24 13:00:04;;;;;;;;;;;25.60;48.30;;;;;;6135858;23;19978;-96
2023/04/24 13:02:31;;;;;;;;;;;26.10;49.30;;;;;;6141390;23;19905;-96
2023/04/24 13:04:57;;;;;;;;;;;26.40;44.90;;;;;;6139469;23;19905;-96
2023/04/24 13:07:23;;;;;;;;;;;26.40;46.30;;;;;;6142180;23;19993;-96
2023/04/24 13:09:49;;;;;;;;;;;26.20;48.10;;;;;;6137517;23;19909;-96
2023/04/24 13:12:15;;;;;;;;;;;26.40;46.80;;;;;;6138581;23;19931;-96
2023/04/24 13:14:43;;;;;;;;;;;26.80;43.20;;;;;;6141158;23;19905;-96
2023/04/24 13:17:10;;;;;;;;;;;26.70;43.20;;;;;;6141444;23;19909;-96
2023/04/24 13:19:42;;;;;;;;;;;26.90;46.80;;;;;;6142718;23;19912;-96
2023/04/24 13:22:14;;;;;;;;;;;27.00;46.50;;;;;;6141116;23;20366;-96
2023/04/24 13:24:41;;;;;;;;;;;27.50;45.00;;;;;;6140619;23;20319;-97
2023/04/24 13:27:06;;;;;;;;;;;27.10;43.70;;;;;;6164868;23;19955;-96
2023/04/24 13:29:32;;;;;;;;;;;26.50;43.60;;;;;;6161070;23;20234;-96
2023/04/24 13:31:58;;;;;;;;;;;26.10;43.80;;;;;;6132457;23;20242;-96
2023/04/24 13:34:24;;;;;;;;;;;26.40;45.10;;;;;;6161020;23;19980;-96
2023/04/24 13:36:50;;;;;;;;;;;26.70;44.10;;;;;;6161322;23;19916;-96
2023/04/24 13:39:16;;;;;;;;;;;26.80;43.70;;;;;;6161914;23;19912;-96
2023/04/24 13:41:42;;;;;;;;;;;27.10;43.90;;;;;;6134897;23;19905;-96
2023/04/24 13:44:08;;;;;;;;;;;26.70;43.50;;;;;;6160206;23;20239;-96
2023/04/24 13:46:34;;;;;;;;;;;26.30;45.30;;;;;;6130929;23;19912;-96
2023/04/24 13:48:59;;;;;;;;;;;25.70;47.80;;;;;;6157964;23;19905;-96
2023/04/24 13:51:28;;;;;;;;;;;25.80;48.10;;;;;;6159683;23;20238;-96
2023/04/24 13:53:54;;;;;;;;;;;25.90;46.60;;;;;;6136032;23;19908;-96
2023/04/24 13:56:20;;;;;;;;;;;26.20;44.80;;;;;;6135892;23;20242;-96
2023/04/24 13:58:46;;;;;;;;;;;26.20;45.50;;;;;;6137595;23;19959;-96
2023/04/24 14:01:12;;;;;;;;;;;25.80;45.70;;;;;;6134885;23;19911;-96
2023/04/24 14:03:38;;;;;;;;;;;25.80;46.50;;;;;;6136974;23;19905;-96
2023/04/24 14:06:06;;;;;;;;;;;26.10;44.80;;;;;;6160115;23;19962;-96
2023/04/24 14:08:31;;;;;;;;;;;26.40;45.40;;;;;;6158605;23;19905;-96
2023/04/24 14:10:57;;;;;;;;;;;26.80;42.70;;;;;;6132718;23;19905;-96